EPKK/KRK METAR and TAF weather

Enter ICAO airport designator
Station Type Date Time Source
EPKK METAR 2023/01/29 20:00 UTC NOAA

EPKK 292000Z 24009KT 9999 SCT017 BKN040 M02/M06 Q1020


Station Type Date Time Source
EPKK Decoded METAR 2023/01/29 20:00 UTC NOAA

Krakow, Poland (EPKK) 50-05N 019-48E 237M
Jan 29, 2023 - 03:00 PM EST / 2023.01.29 2000 UTC
Wind: from the WSW (240 degrees) at 10 MPH (9 KT):0
Visibility: greater than 7 mile(s):0
Sky conditions: mostly cloudy
Temperature: 28 F (-2 C)
Windchill: 19 F (-7 C):1
Dew Point: 21 F (-6 C)
Relative Humidity: 74%
Pressure (altimeter): 30.12 in. Hg (1020 hPa)
ob: EPKK 292000Z 24009KT 9999 SCT017 BKN040 M02/M06 Q1020
cycle: 20

Station Type Date Time Source
EPKK TAF 2023/01/29 18:33 UTC NOAA

TAF EPKK 291730Z 2918/3018 24010KT 9999 BKN015
TEMPO 2918/3002 2500 -SN -SG BR BKN009
BECMG 3009/3012 27020G30KT 2000 SN BKN004

Example: see airport list